Flight Track Log - Related Links

Times and Time Zones

All times are in EDT time to prevent confusion due to time zone crossing. See the ASQ5745 flight status page for this flight to view local times or setup timezone preferences in your user account.

Time Position Orientation Groundspeed Altitude Reporting Facility
EDT Latitude Longitude Course Direction KTS MPH feet Rate Location/Type
Sat 08:10:12 AM 38.9667 -77.5333 North 180 207 1,700  Level Potomac TRACON
Sat 08:11:06 AM 39.0000 -77.5833 311° West 230 265 3,600 1,949 Climbing Potomac TRACON
Sat 08:12:00 AM 39.2193 -77.4500 North  Level FlightAware Approximate
Sat 08:12:49 AM 39.0989 -77.6003 352° North 242 278 6,800  Level Washington Center
Sat 08:13:00 AM 39.3146 -77.4500 North  Level FlightAware Approximate
Sat 08:13:48 AM 39.1806 -77.5783 12° North 258 297 8,700  Level Washington Center
Sat 08:14:00 AM 39.4099 -77.4500 North  Level FlightAware Approximate
Sat 08:14:49 AM 39.2622 -77.5564 12° North 282 325 10,400  Level Washington Center
Sat 08:15:00 AM 39.5029 -77.4500 North  Level FlightAware Approximate
Sat 08:15:49 AM 39.3564 -77.5322 11° North 313 360 11,100  Level Washington Center
Sat 08:16:47 AM 39.4589 -77.5053 11° North 348 400 12,300 1,168 Climbing Washington Center
Sat 08:18:18 AM 39.6025 -77.4644 12° North 372 428 14,000 1,311 Climbing New York Center
Sat 08:19:18 AM 39.7281 -77.4547 North 378 435 15,600 1,388 Climbing New York Center
Sat 08:20:19 AM 39.8222 -77.4503 North 378 435 16,800 1,339 Climbing New York Center
Sat 08:21:19 AM 39.9411 -77.4508 360° North 378 435 18,300 1,261 Climbing New York Center
Sat 08:22:18 AM 40.0472 -77.4528 359° North 384 442 19,300 1,050 Climbing New York Center
Sat 08:23:19 AM 40.1436 -77.4431 North 384 442 20,400 1,041 Climbing New York Center
Sat 08:24:19 AM 40.2417 -77.3708 29° Northeast 379 436 21,400 843 Climbing New York Center
Sat 08:25:20 AM 40.3317 -77.2869 35° Northeast 387 445 22,100 590 Climbing New York Center
Sat 08:26:21 AM 40.4261 -77.2003 35° Northeast 399 459 22,600 559 Climbing New York Center
Sat 08:27:18 AM 40.5250 -77.1083 35° Northeast 419 482 23,200 615 Climbing New York Center
Sat 08:28:18 AM 40.6233 -77.0217 34° Northeast 429 494 23,800 595 Climbing New York Center
Sat 08:29:19 AM 40.7222 -76.9267 36° Northeast 429 494 24,400 600 Climbing New York Center
Sat 08:30:18 AM 40.8228 -76.8317 36° Northeast 429 494 25,000 605 Climbing New York Center
Sat 08:31:18 AM 40.9233 -76.7389 35° Northeast 429 494 25,600 595 Climbing New York Center
Sat 08:32:19 AM 41.0197 -76.6483 35° Northeast 436 502 26,200 595 Climbing New York Center
Sat 08:33:19 AM 41.1225 -76.5497 36° Northeast 436 502 26,800 397 Climbing New York Center
Sat 08:34:20 AM 41.2208 -76.4561 36° Northeast 436 502 27,000 101 Climbing New York Center
Sat 08:35:18 AM 41.3297 -76.3519 36° Northeast 442 509 27,000  Level New York Center
Sat 08:36:19 AM 41.4411 -76.2450 36° Northeast 468 539 27,000 -496 Level New York Center
Sat 08:37:19 AM 41.5519 -76.1403 35° Northeast 474 545 26,000 -1,020 Descending New York Center
Sat 08:38:52 AM 41.7025 -75.9939 36° Northeast 479 551 24,400 -784 Descending Boston Center
Sat 08:39:52 AM 41.7972 -75.9017 36° Northeast 451 519 24,000 -200 Descending Boston Center
Sat 08:40:52 AM 41.8961 -75.8039 36° Northeast 437 503 24,000  Level Boston Center
Sat 08:41:52 AM 41.9989 -75.7061 35° Northeast 437 503 24,000  Level Boston Center
Sat 08:42:52 AM 42.0978 -75.6047 37° Northeast 444 511 24,000  Level Boston Center
Sat 08:43:52 AM 42.2006 -75.5036 36° Northeast 449 517 24,000 -300 Level Boston Center
Sat 08:44:52 AM 42.3053 -75.4047 35° Northeast 449 517 23,400 -1,250 Descending Boston Center
Sat 08:45:52 AM 42.4039 -75.3053 37° Northeast 449 517 21,500 -2,050 Descending Boston Center
Sat 08:46:52 AM 42.4819 -75.1822 49° Northeast 426 490 19,300 -2,250 Descending Boston Center
Sat 08:47:52 AM 42.5106 -75.0231 76° East 414 476 17,000 -2,100 Descending Boston Center
Sat 08:48:52 AM 42.5411 -74.8719 75° East 414 476 15,100 -2,000 Descending Boston Center
Sat 08:49:52 AM 42.5717 -74.7039 76° East 412 474 13,000 -1,818 Descending Boston Center
Sat 08:51:04 AM 42.6039 -74.5444 75° East 391 450 11,100 -960 Descending Boston Center
Sat 08:51:57 AM 42.6244 -74.4408 75° East 325 374 11,000 -650 Descending Boston Center
Sat 08:53:04 AM 42.6333 -74.2969 85° East 325 374 9,800 -1,241 Descending Boston Center
Sat 08:53:53 AM 42.6411 -74.2042 83° East 328 377 8,600 -1,878 Descending Boston Center
Sat 08:54:59 AM 42.6472 -74.0661 87° East 319 367 6,200 -2,031 Descending Boston Center
Sat 08:56:00 AM 42.6531 -73.9531 86° East 301 346 4,300 -1,296 Descending Boston Center
Sat 08:57:04 AM 42.6606 -73.8489 84° East 283 326 3,500 -1,328 Descending Boston Center
Sat 08:58:02 AM 42.6964 -73.8044 42° Northeast 168 193 1,600 -1,966 Descending Boston Center

Login

Don't have an account? Register now (free) for customized features, flight alerts, and more!